Time;durP1;ratioP1;P1;durP2;ratioP2;P2;SDS_P1;SDS_P2;PMS_P1;PMS_P2;Temp;Humidity;BMP_temperature;BMP_pressure;BME280_temperature;BME280_humidity;BME280_pressure;Samples;Min_cycle;Max_cycle;Signal;HPM_P1;HPM_P2
2021/03/08 00:01:09;;;;;;;15.93;14.30;;;3.00;99.90;;;;;;5013121;28;20170;-64
2021/03/08 00:03:34;;;;;;;15.03;13.43;;;3.00;99.90;;;;;;5013806;28;20176;-65
2021/03/08 00:06:00;;;;;;;13.30;11.90;;;3.10;99.90;;;;;;5014266;28;20421;-65
2021/03/08 00:08:26;;;;;;;13.87;12.37;;;3.10;99.90;;;;;;5031708;28;20206;-65
2021/03/08 00:10:51;;;;;;;14.37;12.97;;;3.10;99.90;;;;;;5028942;28;20249;-65
2021/03/08 00:13:17;;;;;;;14.20;12.70;;;3.10;99.90;;;;;;5007338;28;20206;-65
2021/03/08 00:15:43;;;;;;;14.63;11.53;;;3.00;99.90;;;;;;4994207;28;20536;-65
2021/03/08 00:18:09;;;;;;;14.23;12.83;;;3.00;99.90;;;;;;4993826;28;20234;-65
2021/03/08 00:20:34;;;;;;;14.13;12.70;;;2.90;99.90;;;;;;4993888;28;20176;-64
2021/03/08 00:23:00;;;;;;;14.50;13.00;;;2.80;99.90;;;;;;4993803;28;20946;-64
2021/03/08 00:25:31;;;;;;;13.97;12.00;;;2.70;99.90;;;;;;4993833;28;20226;-64
2021/03/08 00:27:58;;;;;;;14.30;12.90;;;2.70;99.90;;;;;;4993723;28;20208;-64
2021/03/08 00:30:24;;;;;;;14.50;13.00;;;2.60;99.90;;;;;;4993901;28;20403;-65
2021/03/08 00:32:49;;;;;;;13.60;12.30;;;2.70;99.90;;;;;;4993835;28;20433;-64
2021/03/08 00:35:16;;;;;;;14.40;12.90;;;2.70;99.90;;;;;;4994230;28;20402;-64
2021/03/08 00:37:43;;;;;;;14.23;12.67;;;2.70;99.90;;;;;;5018187;28;20595;-64
2021/03/08 00:40:14;;;;;;;12.63;11.33;;;2.80;99.90;;;;;;5033163;28;20410;-65
2021/03/08 00:42:41;;;;;;;13.43;12.03;;;2.70;99.90;;;;;;5032936;28;20428;-64
2021/03/08 00:45:12;;;;;;;13.03;11.73;;;2.70;99.90;;;;;;5033421;28;20482;-64
2021/03/08 00:47:38;;;;;;;14.40;12.30;;;2.70;99.90;;;;;;5033035;28;20942;-64
2021/03/08 00:50:11;;;;;;;13.30;12.00;;;2.70;99.90;;;;;;5033082;28;20467;-64
2021/03/08 00:52:36;;;;;;;12.97;11.67;;;2.70;99.90;;;;;;5031873;28;20417;-64
2021/03/08 00:55:03;;;;;;;14.60;12.10;;;2.60;99.90;;;;;;5035292;28;20885;-64
2021/03/08 00:57:28;;;;;;;12.57;11.27;;;2.70;99.90;;;;;;5033021;28;20193;-64
2021/03/08 00:59:55;;;;;;;13.50;12.10;;;2.70;99.90;;;;;;5033153;28;20390;-64
2021/03/08 01:02:20;;;;;;;12.03;10.73;;;2.70;99.90;;;;;;5032347;28;20340;-64
2021/03/08 01:04:46;;;;;;;13.23;11.93;;;2.70;99.90;;;;;;5032789;28;20488;-64
2021/03/08 01:07:12;;;;;;;12.70;11.33;;;2.80;99.90;;;;;;5032960;28;20582;-64
2021/03/08 01:09:37;;;;;;;13.67;12.20;;;2.60;99.90;;;;;;5032712;28;20752;-64
2021/03/08 01:12:05;;;;;;;13.17;11.77;;;2.60;99.90;;;;;;5032956;28;20167;-64
2021/03/08 01:14:30;;;;;;;14.27;11.90;;;2.60;99.90;;;;;;5036608;28;20624;-64
2021/03/08 01:16:56;;;;;;;14.23;12.60;;;2.60;99.90;;;;;;5036821;28;20472;-64
2021/03/08 01:19:22;;;;;;;15.63;12.97;;;2.40;99.90;;;;;;5036649;28;20563;-64
2021/03/08 01:21:47;;;;;;;14.50;12.83;;;2.40;99.90;;;;;;5061515;22;20188;-59
2021/03/08 01:24:13;;;;;;;13.23;12.00;;;2.40;99.90;;;;;;5056719;28;20579;-62
2021/03/08 01:26:38;;;;;;;13.50;12.10;;;2.50;99.90;;;;;;5056589;28;20173;-61
2021/03/08 01:29:04;;;;;;;15.83;13.73;;;2.50;99.90;;;;;;5056274;28;20226;-62
2021/03/08 01:31:30;;;;;;;12.70;11.43;;;2.50;99.90;;;;;;5055950;28;20634;-60
2021/03/08 01:33:56;;;;;;;14.73;11.13;;;2.50;99.90;;;;;;5056300;28;20423;-60
2021/03/08 01:36:21;;;;;;;14.30;12.50;;;2.40;99.90;;;;;;5056196;28;20306;-62
2021/03/08 01:38:47;;;;;;;14.23;12.73;;;2.40;99.90;;;;;;5058570;28;20264;-60
2021/03/08 01:41:13;;;;;;;14.17;11.80;;;2.30;99.90;;;;;;5055977;28;20271;-61
2021/03/08 01:43:41;;;;;;;14.07;12.57;;;2.30;99.90;;;;;;5056097;28;20844;-61
2021/03/08 01:46:06;;;;;;;14.60;12.40;;;2.30;99.90;;;;;;5056032;28;20465;-60
2021/03/08 01:48:32;;;;;;;15.17;12.97;;;2.40;99.90;;;;;;5055931;28;20439;-61
2021/03/08 01:50:58;;;;;;;14.83;13.33;;;2.40;99.90;;;;;;5056166;28;20305;-62
2021/03/08 01:53:27;;;;;;;13.67;12.17;;;2.40;99.90;;;;;;5055322;28;20439;-62
2021/03/08 01:55:53;;;;;;;13.80;11.77;;;2.30;99.90;;;;;;5037651;28;20692;-62
2021/03/08 01:58:19;;;;;;;15.07;13.57;;;2.30;99.90;;;;;;5055613;28;20404;-61
2021/03/08 02:00:44;;;;;;;13.63;12.23;;;2.30;99.90;;;;;;5055649;28;20414;-62
2021/03/08 02:03:10;;;;;;;19.30;14.17;;;2.20;99.90;;;;;;5055959;28;20459;-62
2021/03/08 02:05:38;;;;;;;15.47;12.27;;;2.30;99.90;;;;;;5056322;28;20623;-61
2021/03/08 02:08:08;;;;;;;15.60;13.70;;;2.30;99.90;;;;;;5037526;28;20295;-61
2021/03/08 02:10:35;;;;;;;16.47;13.80;;;2.20;99.90;;;;;;5055957;28;20833;-61
2021/03/08 02:13:18;;;;;;;15.70;12.83;;;2.10;99.90;;;;;;5056312;28;20419;-61
2021/03/08 02:15:52;;;;;;;14.27;12.40;;;2.10;99.90;;;;;;5057272;28;20720;-60
2021/03/08 02:18:55;;;;;;;15.23;12.20;;;2.00;99.90;;;;;;5057184;28;20406;-60
2021/03/08 02:22:15;;;;;;;15.47;13.80;;;2.00;99.90;;;;;;5058413;28;20814;-61
2021/03/08 02:25:19;;;;;;;15.87;13.13;;;2.00;99.90;;;;;;4974834;28;20516;-60
2021/03/08 02:28:18;;;;;;;14.13;12.57;;;2.00;99.90;;;;;;4995194;28;20975;-60
2021/03/08 02:30:49;;;;;;;17.00;13.47;;;2.00;99.90;;;;;;5055747;28;20868;-61
2021/03/08 02:33:25;;;;;;;18.07;13.10;;;1.90;99.90;;;;;;5054879;28;20473;-61
2021/03/08 02:35:55;;;;;;;14.90;13.40;;;2.00;99.90;;;;;;5055458;28;20383;-60
2021/03/08 02:38:25;;;;;;;15.70;14.00;;;1.90;99.90;;;;;;5054784;28;20410;-61
2021/03/08 02:40:57;;;;;;;15.37;13.17;;;1.90;99.90;;;;;;5055181;28;20384;-60
2021/03/08 02:43:27;;;;;;;15.90;12.50;;;1.90;99.90;;;;;;5055214;28;20424;-61
2021/03/08 02:45:53;;;;;;;15.50;13.90;;;1.90;99.90;;;;;;5055092;28;20402;-62
2021/03/08 02:48:23;;;;;;;15.37;13.77;;;1.80;99.90;;;;;;5055388;28;20438;-62
2021/03/08 02:50:50;;;;;;;18.70;14.13;;;1.80;99.90;;;;;;5054820;28;20441;-62
2021/03/08 02:53:18;;;;;;;17.37;14.07;;;1.70;99.90;;;;;;5054420;28;20485;-61
2021/03/08 02:55:53;;;;;;;18.83;15.83;;;1.60;99.90;;;;;;5054897;28;20404;-61
2021/03/08 02:58:22;;;;;;;16.80;13.90;;;1.60;99.90;;;;;;5054619;28;20387;-62
2021/03/08 03:00:48;;;;;;;16.37;14.67;;;1.60;99.90;;;;;;5037051;28;20910;-62
2021/03/08 03:03:14;;;;;;;17.50;14.57;;;1.60;99.90;;;;;;5054524;28;20422;-64
2021/03/08 03:05:41;;;;;;;17.03;14.77;;;1.60;99.90;;;;;;5042670;28;20883;-62
2021/03/08 03:08:09;;;;;;;15.13;13.53;;;1.50;99.90;;;;;;5054210;28;20452;-63
2021/03/08 03:10:37;;;;;;;20.00;15.67;;;1.50;99.90;;;;;;5054787;28;20541;-61
2021/03/08 03:13:04;;;;;;;19.77;15.73;;;1.50;99.90;;;;;;5054465;28;20423;-62
2021/03/08 03:15:34;;;;;;;17.40;15.53;;;1.40;99.90;;;;;;5054792;28;20403;-62
2021/03/08 03:18:00;;;;;;;16.47;14.40;;;1.40;99.90;;;;;;5054219;28;20470;-62
2021/03/08 03:20:27;;;;;;;19.67;16.07;;;1.50;99.90;;;;;;5054414;28;20902;-62
2021/03/08 03:22:56;;;;;;;19.00;16.33;;;1.50;99.90;;;;;;5053532;28;20461;-62
2021/03/08 03:25:24;;;;;;;18.23;15.63;;;1.60;99.90;;;;;;5054043;28;20504;-62
2021/03/08 03:27:52;;;;;;;16.47;14.77;;;1.50;99.90;;;;;;5053954;28;20441;-62
2021/03/08 03:30:20;;;;;;;18.60;15.40;;;1.50;99.90;;;;;;5053899;28;20786;-63
2021/03/08 03:32:46;;;;;;;21.00;15.43;;;1.50;99.90;;;;;;5054132;28;20814;-62
2021/03/08 03:35:13;;;;;;;19.13;15.60;;;1.60;99.90;;;;;;5054407;28;20401;-62
2021/03/08 03:37:41;;;;;;;18.70;15.83;;;1.60;99.90;;;;;;5056296;28;20255;-62
2021/03/08 03:40:08;;;;;;;17.60;15.53;;;1.50;99.90;;;;;;5053836;28;20888;-62
2021/03/08 03:42:34;;;;;;;20.00;16.90;;;1.40;99.90;;;;;;5053717;28;20537;-62
2021/03/08 03:45:00;;;;;;;18.50;16.23;;;1.30;99.90;;;;;;5054319;28;20406;-62
2021/03/08 03:47:26;;;;;;;18.47;16.40;;;1.30;99.90;;;;;;5053925;28;20405;-62
2021/03/08 03:49:52;;;;;;;16.83;14.97;;;1.30;99.90;;;;;;5053979;28;20413;-62
2021/03/08 03:52:17;;;;;;;18.50;16.60;;;1.30;99.90;;;;;;5053663;28;20946;-61
2021/03/08 03:54:46;;;;;;;20.17;16.50;;;1.30;99.90;;;;;;5053516;28;20169;-61
2021/03/08 03:57:13;;;;;;;20.53;18.33;;;1.30;99.90;;;;;;5053821;28;20165;-61
2021/03/08 03:59:47;;;;;;;18.80;16.20;;;1.30;99.90;;;;;;5053457;28;20418;-61
2021/03/08 04:02:17;;;;;;;18.80;16.37;;;1.20;99.90;;;;;;5053705;28;20417;-60
2021/03/08 04:04:50;;;;;;;19.27;16.43;;;1.20;99.90;;;;;;5053957;28;20442;-61
2021/03/08 04:07:18;;;;;;;19.50;16.60;;;1.20;99.90;;;;;;5053315;28;20383;-61
2021/03/08 04:09:48;;;;;;;20.20;16.40;;;1.20;99.90;;;;;;5053702;28;20489;-63
2021/03/08 04:12:15;;;;;;;19.80;15.80;;;1.30;99.90;;;;;;5053444;28;20488;-62
2021/03/08 04:14:43;;;;;;;20.30;16.53;;;1.30;99.90;;;;;;5053145;28;20756;-62
2021/03/08 04:17:10;;;;;;;22.63;18.27;;;1.20;99.90;;;;;;5053443;28;20446;-59
2021/03/08 04:19:40;;;;;;;18.40;16.40;;;1.10;99.90;;;;;;5053483;28;20407;-62
2021/03/08 04:22:08;;;;;;;19.97;17.87;;;1.10;99.90;;;;;;5053239;28;20462;-61
2021/03/08 04:24:37;;;;;;;19.00;16.93;;;1.10;99.90;;;;;;5052814;28;20467;-61
2021/03/08 04:27:06;;;;;;;19.17;16.27;;;1.20;99.90;;;;;;5053588;28;20407;-62
2021/03/08 04:29:43;;;;;;;19.73;16.73;;;1.10;99.90;;;;;;5053103;28;20454;-62
2021/03/08 04:32:10;;;;;;;19.30;16.67;;;1.00;99.90;;;;;;5053148;28;20945;-62
2021/03/08 04:34:36;;;;;;;18.60;16.20;;;1.00;99.90;;;;;;5053319;28;20762;-61
2021/03/08 04:37:04;;;;;;;18.77;16.70;;;1.00;99.90;;;;;;5053440;28;20771;-61
2021/03/08 04:39:34;;;;;;;19.90;17.77;;;1.00;99.90;;;;;;5052759;28;20419;-61
2021/03/08 04:42:01;;;;;;;21.57;16.33;;;0.90;99.90;;;;;;5035192;28;20435;-62
2021/03/08 04:44:27;;;;;;;19.90;16.67;;;1.00;99.90;;;;;;5053336;28;20434;-62
2021/03/08 04:46:54;;;;;;;20.43;16.60;;;1.00;99.90;;;;;;5053296;28;20830;-61
2021/03/08 04:49:20;;;;;;;20.10;17.77;;;0.90;99.90;;;;;;5057434;28;20543;-61
2021/03/08 04:51:47;;;;;;;20.57;18.47;;;0.90;99.90;;;;;;5056952;28;20431;-62
2021/03/08 04:54:15;;;;;;;22.67;17.40;;;0.90;99.90;;;;;;5056870;28;20806;-62
2021/03/08 04:56:41;;;;;;;22.40;17.70;;;0.90;99.90;;;;;;5057150;28;20401;-62
2021/03/08 04:59:07;;;;;;;20.40;17.53;;;0.90;99.90;;;;;;5057202;28;20401;-62
2021/03/08 05:01:34;;;;;;;20.50;17.57;;;0.90;99.90;;;;;;5056929;28;20428;-62
2021/03/08 05:04:06;;;;;;;23.90;18.80;;;0.80;99.90;;;;;;5057043;28;20437;-61
2021/03/08 05:06:40;;;;;;;19.20;16.80;;;0.80;99.90;;;;;;5057029;28;20749;-62
2021/03/08 05:09:08;;;;;;;22.80;17.90;;;0.70;99.90;;;;;;5056700;28;20437;-62
2021/03/08 05:11:36;;;;;;;21.80;16.83;;;0.80;99.90;;;;;;5056650;28;20424;-61
2021/03/08 05:14:12;;;;;;;22.87;19.00;;;0.70;99.90;;;;;;5056776;28;20520;-62
2021/03/08 05:16:42;;;;;;;21.17;18.10;;;0.60;99.90;;;;;;5056628;28;20867;-62
2021/03/08 05:19:08;;;;;;;19.77;17.67;;;0.60;99.90;;;;;;5056350;28;20438;-62
2021/03/08 05:21:35;;;;;;;21.00;17.93;;;0.60;99.90;;;;;;5056479;28;20901;-62
2021/03/08 05:24:01;;;;;;;21.47;17.13;;;0.70;99.90;;;;;;5055889;28;20453;-62
2021/03/08 05:26:27;;;;;;;20.23;17.40;;;0.70;99.90;;;;;;5056878;28;20436;-62
2021/03/08 05:28:54;;;;;;;20.77;17.47;;;0.60;99.90;;;;;;5038378;28;20993;-62
2021/03/08 05:31:21;;;;;;;22.60;18.27;;;0.60;99.90;;;;;;5050539;28;20510;-62
2021/03/08 05:33:51;;;;;;;22.47;18.73;;;0.60;99.90;;;;;;5047611;28;20472;-61
2021/03/08 05:36:18;;;;;;;21.97;17.90;;;0.60;99.90;;;;;;5058273;28;20425;-62
2021/03/08 05:38:45;;;;;;;19.53;17.50;;;0.60;99.90;;;;;;5048357;28;20845;-61
2021/03/08 05:41:30;;;;;;;21.57;19.23;;;0.70;99.90;;;;;;5056371;28;20417;-61
2021/03/08 05:44:01;;;;;;;23.57;18.80;;;0.70;99.90;;;;;;5056692;28;20786;-62
2021/03/08 05:46:36;;;;;;;18.30;16.33;;;0.70;99.90;;;;;;5056445;28;20799;-62
2021/03/08 05:49:23;;;;;;;22.40;17.80;;;0.70;99.90;;;;;;5056563;28;20394;-62
2021/03/08 05:52:12;;;;;;;21.47;19.17;;;0.80;99.90;;;;;;5057965;28;20389;-61
2021/03/08 05:54:56;;;;;;;24.73;19.27;;;0.80;99.90;;;;;;5056658;28;20419;-60
2021/03/08 05:57:26;;;;;;;19.80;17.70;;;0.70;99.90;;;;;;5055824;28;20407;-63
2021/03/08 06:00:13;;;;;;;24.73;21.20;;;0.80;99.90;;;;;;5054437;28;20395;-61
2021/03/08 06:03:08;;;;;;;23.37;20.77;;;0.70;99.90;;;;;;5055580;28;20476;-63
2021/03/08 06:05:52;;;;;;;27.60;22.33;;;0.70;99.90;;;;;;5055868;28;20388;-61
2021/03/08 06:08:45;;;;;;;27.30;20.70;;;0.60;99.90;;;;;;5055435;28;20488;-61
2021/03/08 06:11:12;;;;;;;28.93;23.20;;;0.60;99.90;;;;;;5055332;28;20459;-61
2021/03/08 06:14:07;;;;;;;29.30;23.50;;;0.60;99.90;;;;;;5055350;28;20500;-61
2021/03/08 06:16:36;;;;;;;32.90;24.00;;;0.60;99.90;;;;;;5038929;28;20406;-61
2021/03/08 06:19:04;;;;;;;26.63;23.70;;;0.60;99.90;;;;;;5055604;28;20457;-61
2021/03/08 06:21:35;;;;;;;31.90;21.73;;;0.70;99.90;;;;;;5055621;28;20935;-61
2021/03/08 06:24:03;;;;;;;26.70;22.07;;;0.80;99.90;;;;;;5054719;28;20492;-61
2021/03/08 06:26:30;;;;;;;23.30;20.80;;;0.80;99.90;;;;;;5055395;28;20402;-60
2021/03/08 06:28:57;;;;;;;28.00;21.23;;;0.90;99.90;;;;;;5055283;28;20403;-61
2021/03/08 06:31:25;;;;;;;28.10;19.87;;;1.00;99.90;;;;;;5054987;28;20489;-60
2021/03/08 06:33:54;;;;;;;24.57;19.67;;;1.00;99.90;;;;;;5054852;28;20413;-61
2021/03/08 06:36:23;;;;;;;23.07;19.13;;;1.10;99.90;;;;;;5054977;28;20832;-61
2021/03/08 06:38:49;;;;;;;23.67;20.80;;;1.10;99.90;;;;;;5054665;28;20454;-61
2021/03/08 06:41:15;;;;;;;22.87;20.10;;;1.00;99.90;;;;;;5055004;28;20493;-61
2021/03/08 06:43:41;;;;;;;23.90;21.00;;;1.10;99.90;;;;;;5054706;28;20426;-61
2021/03/08 06:46:07;;;;;;;23.33;19.67;;;1.20;99.90;;;;;;5054674;28;20763;-61
2021/03/08 06:48:33;;;;;;;23.20;19.80;;;1.30;99.90;;;;;;5054560;28;20402;-61
2021/03/08 06:51:17;;;;;;;25.13;20.80;;;1.40;99.90;;;;;;5036676;28;20179;-61
2021/03/08 06:53:45;;;;;;;21.70;19.10;;;1.30;99.90;;;;;;5054095;28;20213;-60
2021/03/08 06:56:23;;;;;;;22.73;19.33;;;1.40;99.90;;;;;;5054562;28;20406;-60
2021/03/08 06:59:10;;;;;;;26.93;21.87;;;1.50;99.90;;;;;;5054427;28;20452;-59
2021/03/08 07:01:36;;;;;;;22.47;20.10;;;1.40;99.90;;;;;;5054244;28;20474;-59
2021/03/08 07:04:09;;;;;;;26.23;20.50;;;1.40;99.90;;;;;;5054482;28;20970;-61
2021/03/08 07:06:35;;;;;;;24.50;20.93;;;1.50;99.90;;;;;;5054125;28;20376;-60
2021/03/08 07:09:04;;;;;;;21.30;18.17;;;1.50;99.90;;;;;;5054126;28;20400;-58
2021/03/08 07:11:29;;;;;;;22.23;18.97;;;1.60;99.90;;;;;;5053928;28;20181;-61
2021/03/08 07:13:55;;;;;;;23.13;20.67;;;1.70;99.90;;;;;;5054251;28;20774;-60
2021/03/08 07:16:34;;;;;;;23.07;20.00;;;1.80;99.90;;;;;;5054123;28;20174;-61
2021/03/08 07:19:00;;;;;;;22.90;20.07;;;1.90;99.90;;;;;;5053849;28;20641;-61
2021/03/08 07:21:25;;;;;;;23.40;19.80;;;2.10;99.90;;;;;;5054238;28;20585;-61
2021/03/08 07:23:52;;;;;;;20.13;18.07;;;2.10;99.90;;;;;;5069499;22;20236;-64
2021/03/08 07:26:19;;;;;;;23.93;19.50;;;2.20;99.90;;;;;;5036124;28;20669;-64
2021/03/08 07:29:11;;;;;;;23.40;20.63;;;2.30;99.90;;;;;;5053305;28;20396;-64
2021/03/08 07:31:42;;;;;;;21.30;19.00;;;2.40;99.90;;;;;;5053855;28;20878;-64
2021/03/08 07:34:09;;;;;;;21.03;18.73;;;2.40;99.90;;;;;;5054102;28;20793;-63
2021/03/08 07:36:39;;;;;;;23.27;20.70;;;2.60;99.90;;;;;;5054140;28;20404;-63
2021/03/08 07:39:24;;;;;;;20.40;17.80;;;2.70;99.90;;;;;;5070857;28;20443;-64
2021/03/08 07:41:50;;;;;;;25.43;21.27;;;2.60;99.90;;;;;;5073704;28;20386;-64
2021/03/08 07:44:18;;;;;;;23.80;20.73;;;2.40;99.90;;;;;;5073557;28;20423;-65
2021/03/08 07:46:44;;;;;;;30.13;24.50;;;2.40;99.90;;;;;;5055565;28;20398;-64
2021/03/08 07:49:09;;;;;;;27.23;21.50;;;2.60;99.90;;;;;;5073501;28;20409;-63
2021/03/08 07:51:35;;;;;;;32.90;23.60;;;2.40;99.90;;;;;;5073310;28;20252;-64
2021/03/08 07:54:03;;;;;;;25.67;20.90;;;2.50;99.90;;;;;;5060029;28;20197;-64
2021/03/08 07:56:29;;;;;;;30.00;23.73;;;2.60;99.90;;;;;;5053439;28;20205;-64
2021/03/08 07:58:56;;;;;;;27.77;21.63;;;2.60;99.90;;;;;;5053304;28;20480;-64
2021/03/08 08:01:22;;;;;;;28.27;22.13;;;2.70;99.90;;;;;;5053433;28;20406;-64
2021/03/08 08:03:48;;;;;;;27.07;23.60;;;2.80;99.90;;;;;;5053175;28;20432;-64
2021/03/08 08:06:19;;;;;;;24.93;21.20;;;2.60;99.90;;;;;;5053449;28;20911;-64
2021/03/08 08:08:49;;;;;;;30.70;23.20;;;2.60;99.90;;;;;;5052857;28;20461;-64
2021/03/08 08:11:20;;;;;;;30.33;23.27;;;2.70;99.90;;;;;;5053402;28;20427;-64
2021/03/08 08:13:56;;;;;;;25.30;20.83;;;2.80;99.90;;;;;;5053325;28;20464;-64
2021/03/08 08:16:23;;;;;;;26.10;22.97;;;2.70;99.90;;;;;;5053444;28;20404;-64
2021/03/08 08:18:53;;;;;;;32.07;22.73;;;2.70;99.90;;;;;;5053193;28;20455;-69
2021/03/08 08:21:20;;;;;;;24.80;21.23;;;2.90;99.90;;;;;;5052839;28;20415;-64
2021/03/08 08:23:56;;;;;;;30.47;22.87;;;3.10;99.90;;;;;;5052179;28;20451;-64
2021/03/08 08:26:22;;;;;;;25.97;21.20;;;3.10;99.90;;;;;;5053403;28;20741;-64
2021/03/08 08:28:50;;;;;;;29.80;22.23;;;3.00;99.90;;;;;;5049855;28;20434;-64
2021/03/08 08:31:16;;;;;;;22.57;20.30;;;3.10;99.90;;;;;;5044024;28;20428;-64
2021/03/08 08:33:42;;;;;;;24.70;21.43;;;3.30;99.90;;;;;;5052906;28;20786;-64
2021/03/08 08:36:12;;;;;;;22.57;20.10;;;3.40;99.90;;;;;;5052959;28;20416;-64
2021/03/08 08:38:54;;;;;;;22.43;19.90;;;3.20;99.90;;;;;;5052264;28;20965;-64
2021/03/08 08:41:21;;;;;;;25.20;20.60;;;3.40;99.90;;;;;;5052393;28;20757;-64
2021/03/08 08:44:12;;;;;;;21.57;19.30;;;3.60;99.90;;;;;;5052321;28;20428;-64
2021/03/08 08:46:46;;;;;;;21.20;18.90;;;3.40;99.90;;;;;;5052487;28;20400;-64
2021/03/08 08:49:18;;;;;;;28.30;20.77;;;3.50;99.90;;;;;;5052814;28;20484;-63
2021/03/08 08:51:51;;;;;;;24.87;21.73;;;3.40;99.90;;;;;;5052612;28;20503;-64
2021/03/08 08:54:29;;;;;;;26.10;21.60;;;3.40;99.90;;;;;;5034323;28;20531;-64
2021/03/08 08:57:00;;;;;;;25.60;20.83;;;3.30;99.90;;;;;;5035079;28;20422;-64
2021/03/08 08:59:26;;;;;;;20.40;18.13;;;3.20;99.90;;;;;;5032375;28;20476;-64
2021/03/08 09:02:28;;;;;;;22.53;19.60;;;3.30;99.90;;;;;;5032381;28;20438;-64
2021/03/08 09:04:53;;;;;;;23.73;19.50;;;3.60;99.90;;;;;;5032852;28;20388;-64
2021/03/08 09:07:26;;;;;;;25.73;20.60;;;3.70;99.90;;;;;;5032427;28;20834;-64
2021/03/08 09:10:01;;;;;;;22.87;20.47;;;3.80;99.90;;;;;;5032143;28;20163;-64
2021/03/08 09:12:27;;;;;;;21.50;19.20;;;3.70;99.90;;;;;;5032531;28;20449;-64
2021/03/08 09:14:54;;;;;;;23.50;21.10;;;3.80;99.90;;;;;;5032661;28;20894;-64
2021/03/08 09:17:30;;;;;;;23.77;21.33;;;3.70;99.90;;;;;;5032487;28;20537;-64
2021/03/08 09:19:55;;;;;;;18.97;16.97;;;3.80;99.90;;;;;;5032306;28;20422;-64
2021/03/08 09:22:27;;;;;;;21.87;19.73;;;4.00;99.90;;;;;;5032353;28;20441;-64
2021/03/08 09:24:53;;;;;;;20.90;18.70;;;3.90;99.90;;;;;;5031864;28;20200;-64
2021/03/08 09:27:38;;;;;;;22.17;19.87;;;4.00;99.90;;;;;;5032734;28;20432;-64
2021/03/08 09:30:18;;;;;;;19.70;17.33;;;4.20;99.90;;;;;;5032508;28;20450;-64
2021/03/08 09:32:55;;;;;;;21.60;18.17;;;4.10;99.90;;;;;;5032279;28;20418;-64
2021/03/08 09:35:24;;;;;;;22.20;18.10;;;4.00;99.90;;;;;;5036676;28;20382;-64
2021/03/08 09:37:55;;;;;;;19.67;17.67;;;4.20;99.90;;;;;;5035808;28;20760;-63
2021/03/08 09:40:34;;;;;;;20.10;18.13;;;4.30;99.90;;;;;;5035887;28;20471;-64
2021/03/08 09:43:00;;;;;;;23.43;17.83;;;4.30;99.90;;;;;;5038568;28;20802;-64
2021/03/08 09:45:30;;;;;;;19.10;17.10;;;4.30;99.90;;;;;;5075827;28;20829;-64
2021/03/08 09:47:56;;;;;;;22.63;19.60;;;4.20;99.90;;;;;;5076066;28;20426;-64
2021/03/08 09:50:26;;;;;;;19.20;17.20;;;4.40;99.90;;;;;;5076542;28;20439;-64
2021/03/08 09:52:55;;;;;;;19.13;17.20;;;4.50;99.90;;;;;;5072046;28;20444;-65
2021/03/08 09:55:26;;;;;;;19.50;17.40;;;4.50;99.90;;;;;;5055742;28;20409;-64
2021/03/08 09:57:52;;;;;;;20.73;18.73;;;4.70;99.90;;;;;;5055654;28;20449;-64
2021/03/08 10:00:24;;;;;;;19.53;17.53;;;4.90;99.90;;;;;;5055677;28;20778;-64
2021/03/08 10:03:01;;;;;;;23.30;18.37;;;5.10;99.90;;;;;;5055743;28;20429;-64
2021/03/08 10:05:43;;;;;;;19.50;17.07;;;5.20;99.90;;;;;;5055420;28;20427;-67
2021/03/08 10:08:10;;;;;;;19.27;17.50;;;5.10;99.90;;;;;;5055185;28;20409;-64
2021/03/08 10:10:46;;;;;;;17.83;16.03;;;5.30;99.90;;;;;;5055621;28;20414;-64
2021/03/08 10:13:12;;;;;;;17.60;16.00;;;5.40;99.90;;;;;;5055198;28;20432;-64
2021/03/08 10:15:43;;;;;;;18.53;16.27;;;5.60;99.90;;;;;;5037353;28;20475;-64
2021/03/08 10:18:10;;;;;;;18.70;16.70;;;5.60;99.90;;;;;;5055058;28;20517;-64
2021/03/08 10:20:50;;;;;;;19.17;17.17;;;5.50;99.80;;;;;;5055360;28;20813;-64
2021/03/08 10:23:28;;;;;;;18.77;16.83;;;5.60;99.90;;;;;;5054825;28;20949;-64
2021/03/08 10:26:06;;;;;;;19.30;15.90;;;5.70;99.60;;;;;;5055548;28;20888;-64
2021/03/08 10:28:45;;;;;;;18.60;15.60;;;5.40;99.50;;;;;;5055100;28;20472;-64
2021/03/08 10:31:19;;;;;;;16.90;15.10;;;5.60;99.40;;;;;;5055357;28;20504;-64
2021/03/08 10:33:49;;;;;;;17.07;15.57;;;5.70;99.20;;;;;;5055036;28;20846;-64
2021/03/08 10:36:20;;;;;;;17.07;15.43;;;5.90;98.80;;;;;;5046729;28;20457;-65
2021/03/08 10:38:56;;;;;;;16.20;14.50;;;6.20;98.60;;;;;;5053804;28;20478;-64
2021/03/08 10:41:25;;;;;;;14.33;12.90;;;6.30;97.20;;;;;;5054958;28;20463;-64
2021/03/08 10:43:51;;;;;;;16.17;14.57;;;6.10;97.40;;;;;;5043640;28;20821;-64
2021/03/08 10:46:17;;;;;;;16.10;14.43;;;5.90;97.60;;;;;;5054034;28;20417;-64
2021/03/08 10:49:00;;;;;;;15.30;13.80;;;6.00;97.80;;;;;;5054144;28;20421;-64
2021/03/08 10:51:26;;;;;;;17.40;15.17;;;6.20;97.90;;;;;;5053892;28;20973;-64
2021/03/08 10:54:03;;;;;;;15.40;13.83;;;6.40;97.30;;;;;;5053035;28;20480;-64
2021/03/08 10:56:30;;;;;;;13.47;12.07;;;6.40;96.70;;;;;;5051303;28;20405;-64
2021/03/08 10:58:57;;;;;;;16.80;13.73;;;6.30;96.20;;;;;;5054172;28;20844;-64
2021/03/08 11:01:23;;;;;;;19.17;13.07;;;6.80;96.60;;;;;;5054277;28;20798;-64
2021/03/08 11:03:49;;;;;;;17.93;13.60;;;7.20;95.70;;;;;;5054082;28;20902;-64
2021/03/08 11:06:17;;;;;;;14.93;11.13;;;7.20;95.70;;;;;;5053371;28;20432;-64
2021/03/08 11:08:54;;;;;;;13.70;12.30;;;6.80;94.00;;;;;;5052978;28;20417;-64
2021/03/08 11:11:43;;;;;;;13.53;12.13;;;7.10;95.00;;;;;;5053288;28;20430;-63
2021/03/08 11:14:08;;;;;;;13.93;12.37;;;7.10;93.90;;;;;;5054020;28;20442;-64
2021/03/08 11:16:35;;;;;;;12.63;11.37;;;7.20;93.70;;;;;;5054214;28;20412;-64
2021/03/08 11:19:18;;;;;;;13.77;12.40;;;7.60;93.40;;;;;;5053803;28;20667;-64
2021/03/08 11:21:45;;;;;;;13.17;11.87;;;7.70;92.70;;;;;;5050711;28;20795;-64
2021/03/08 11:24:14;;;;;;;13.27;11.80;;;7.70;92.10;;;;;;5050066;28;20476;-64
2021/03/08 11:26:40;;;;;;;15.60;12.67;;;8.00;91.80;;;;;;5052398;28;20925;-64
2021/03/08 11:29:05;;;;;;;14.27;12.87;;;8.70;91.00;;;;;;5053109;28;20419;-64
2021/03/08 11:31:31;;;;;;;15.23;12.93;;;9.90;89.60;;;;;;5046338;28;20174;-65
2021/03/08 11:33:56;;;;;;;14.27;12.77;;;12.10;83.50;;;;;;5044865;28;20199;-64
2021/03/08 11:36:34;;;;;;;14.77;12.80;;;12.90;73.50;;;;;;5053500;28;20169;-64
2021/03/08 11:39:06;;;;;;;14.60;13.17;;;13.70;71.20;;;;;;5050835;28;20301;-65
2021/03/08 11:41:43;;;;;;;14.20;12.70;;;13.90;67.70;;;;;;5052348;28;20421;-65
2021/03/08 11:44:10;;;;;;;14.83;13.43;;;12.70;67.10;;;;;;5052035;28;20440;-64
2021/03/08 11:46:35;;;;;;;13.83;12.53;;;12.50;68.70;;;;;;5053493;28;20405;-65
2021/03/08 11:49:05;;;;;;;15.13;13.70;;;14.10;68.00;;;;;;5053602;28;20433;-65
2021/03/08 11:51:30;;;;;;;15.47;13.97;;;15.00;62.20;;;;;;5053005;28;20241;-65
2021/03/08 11:53:57;;;;;;;14.20;12.80;;;13.10;62.20;;;;;;5053021;28;20543;-64
2021/03/08 11:56:26;;;;;;;14.70;13.17;;;13.40;63.70;;;;;;5027838;28;20200;-65
2021/03/08 11:58:54;;;;;;;14.57;13.23;;;14.20;61.40;;;;;;5050549;28;20946;-65
2021/03/08 12:01:19;;;;;;;13.80;12.57;;;14.20;59.30;;;;;;5052532;28;20945;-65
2021/03/08 12:03:45;;;;;;;15.00;13.70;;;14.80;59.20;;;;;;5052804;28;20439;-65
2021/03/08 12:06:11;;;;;;;15.37;13.97;;;15.80;57.70;;;;;;5053091;28;20197;-65
2021/03/08 12:08:36;;;;;;;13.43;11.80;;;15.60;58.10;;;;;;5052569;28;20208;-65
2021/03/08 12:11:04;;;;;;;14.80;13.30;;;14.80;55.30;;;;;;5053228;28;20277;-65
2021/03/08 12:13:29;;;;;;;14.17;12.87;;;14.40;55.50;;;;;;5053025;28;20201;-65
2021/03/08 12:15:55;;;;;;;14.23;12.83;;;14.00;57.80;;;;;;5043616;28;20803;-65
2021/03/08 12:18:21;;;;;;;15.17;13.67;;;15.30;56.00;;;;;;5058445;28;20208;-65
2021/03/08 12:20:46;;;;;;;14.37;12.93;;;16.00;53.70;;;;;;5048382;28;20169;-63
2021/03/08 12:23:12;;;;;;;14.20;13.00;;;15.40;55.40;;;;;;5038957;28;20776;-65
2021/03/08 12:25:37;;;;;;;14.20;12.93;;;15.90;53.90;;;;;;5052358;28;20223;-65
2021/03/08 12:28:03;;;;;;;11.93;10.83;;;15.80;51.80;;;;;;5052338;28;20196;-65
2021/03/08 12:30:29;;;;;;;13.37;12.07;;;15.30;52.20;;;;;;5051950;28;20187;-65
2021/03/08 12:32:54;;;;;;;11.60;10.50;;;16.10;50.30;;;;;;5051367;28;20208;-65
2021/03/08 12:35:20;;;;;;;13.67;12.23;;;16.30;50.40;;;;;;5052159;28;20175;-64
2021/03/08 12:37:46;;;;;;;13.83;12.43;;;16.70;48.60;;;;;;5052138;28;20192;-64
2021/03/08 12:40:12;;;;;;;13.97;12.77;;;17.20;48.80;;;;;;5052110;28;20416;-64
2021/03/08 12:42:38;;;;;;;14.20;12.90;;;17.30;48.80;;;;;;5051939;28;20177;-65
2021/03/08 12:45:04;;;;;;;13.67;12.43;;;17.30;48.70;;;;;;5052254;28;20408;-65
2021/03/08 12:47:29;;;;;;;12.13;10.97;;;18.40;47.60;;;;;;5048410;28;20574;-65
2021/03/08 12:49:55;;;;;;;12.50;11.30;;;18.40;46.00;;;;;;5051239;28;20550;-64